Latest Weather Observations for Hobart

IDT60801

Issued at 12:02 am EST Monday 29 August 2016 (issued every 30 minutes, with the page automatically refreshed every 10 minutes)

About weather observations | Map of weather stations | Latest weather observations for TAS | Other Formats
Station Details ID: 094029 Name: HOBART (ELLERSLIE ROAD) Lat: -42.89 Lon: 147.33 Height: 50.5 m
Data from the previous 72 hours. | See also: Recent months at Hobart
Date/Time
EST
Temp
°C
App
Temp
°C
Dew
Point
°C
Rel
Hum
%
Delta-T
°C
Wind Press
QNH
hPa
Press
MSL
hPa
Rain since
9am
mm
Dir  Spd
km/h
Gust
km/h
Spd
kts
Gust
kts
29/12:00am 3.3 -0.4 0.1 79 1.2 WNW 9 13 5 7 1021.0 1021.1 0.2
 
Date/Time
EST
Temp
°C
App
Temp
°C
Dew
Point
°C
Rel
Hum
%
Delta-T
°C
Wind Press
QNH
hPa
Press
MSL
hPa
Rain since
9am
mm
Dir  Spd
km/h
Gust
km/h
Spd
kts
Gust
kts
28/11:30pm 3.7 -0.4 0.0 77 1.4 WSW 11 11 6 6 1020.8 1020.9 0.2
28/11:00pm 4.1 0.8 -0.2 73 1.6 WSW 7 11 4 6 1020.6 1020.7 0.2
28/10:30pm 4.0 0.0 0.3 77 1.4 W 11 15 6 8 1020.6 1020.7 0.2
28/10:00pm 4.3 0.6 0.1 74 1.6 W 9 11 5 6 1020.4 1020.5 0.2
28/09:30pm 5.0 0.5 -0.3 68 2.0 WSW 13 17 7 9 1020.3 1020.4 0.2
28/09:00pm 5.9 1.7 -1.1 61 2.6 W 11 17 6 9 1019.9 1020.0 0.2
28/08:30pm 5.5 1.8 0.0 68 2.1 WSW 9 11 5 6 1019.6 1019.7 0.2
28/08:00pm 6.0 2.3 -0.3 64 2.4 SW 9 13 5 7 1019.2 1019.3 0.2
28/07:30pm 6.4 3.1 0.2 64 2.4 WSW 7 11 4 6 1018.9 1019.0 0.2
28/07:00pm 6.5 3.3 0.9 67 2.2 SW 7 9 4 5 1018.7 1018.8 0.2
28/06:30pm 7.5 4.0 1.0 63 2.6 W 9 15 5 8 1018.3 1018.4 0.2
28/06:00pm 8.1 4.9 0.9 60 2.9 WSW 7 11 4 6 1017.9 1018.0 0.2
28/05:30pm 8.7 5.0 -0.2 53 3.5 WSW 9 13 5 7 1017.5 1017.6 0.2
28/05:00pm 9.2 5.5 0.2 53 3.6 SW 9 19 5 10 1017.1 1017.2 0.2
28/04:30pm 10.0 5.1 -0.6 47 4.2 NNW 15 22 8 12 1016.7 1016.8 0.2
28/04:00pm 10.5 5.9 -1.2 44 4.6 NNW 13 24 7 13 1016.7 1016.8 0.2
28/03:30pm 11.3 7.0 -1.7 40 5.1 NW 11 17 6 9 1016.5 1016.6 0.2
28/03:00pm 11.7 8.1 -2.2 38 5.4 NNW 7 15 4 8 1016.3 1016.4 0.2
28/02:30pm 12.0 8.0 -2.0 37 5.5 W 9 17 5 9 1016.1 1016.2 0.2
28/02:00pm 10.7 6.2 -3.1 38 5.2 SW 11 20 6 11 1016.3 1016.4 0.0
28/01:30pm 10.3 6.3 -1.9 42 4.7 WSW 9 22 5 12 1016.6 1016.7 0.0
28/01:00pm 9.8 4.6 0.1 51 3.9 SW 17 24 9 13 1016.6 1016.7 0.0
28/12:30pm 11.0 5.7 -0.4 45 4.6 NW 17 26 9 14 1016.7 1016.8 0.0
28/12:00pm 11.1 5.9 -2.8 37 5.3 WNW 15 26 8 14 1016.8 1016.9 0.0
28/11:30am 10.9 6.7 -3.5 36 5.4 WSW 9 17 5 9 1016.8 1016.9 0.0
28/11:00am 9.8 4.0 -4.7 35 5.2 W 17 30 9 16 1016.8 1016.9 0.0
28/10:30am 9.1 3.5 -3.1 42 4.5 WSW 17 39 9 21 1016.9 1017.0 0.0
28/10:00am 10.0 4.4 -3.1 39 4.9 WSW 17 30 9 16 1016.4 1016.5 0.0
28/09:30am 9.4 4.2 -2.6 43 4.5 SW 15 26 8 14 1016.0 1016.1 0.0
28/09:00am 8.6 3.7 -3.1 43 4.3 WSW 13 35 7 19 1015.8 1015.9 2.0
28/08:30am 8.0 2.1 -2.5 47 3.9 W 19 35 10 19 1015.7 1015.8 2.0
28/08:00am 7.1 2.9 -1.1 56 3.1 SW 11 19 6 10 1015.4 1015.5 2.0
28/07:30am 6.3 1.8 -0.5 62 2.6 WSW 13 22 7 12 1015.2 1015.3 2.0
28/07:00am 6.1 0.2 -1.1 60 2.7 SW 20 28 11 15 1014.0 1014.1 2.0
28/06:30am 5.6 0.3 -0.5 65 2.3 SW 17 24 9 13 1013.4 1013.5 2.0
28/06:00am 5.6 0.0 1.0 72 1.8 SSW 20 32 11 17 1012.9 1013.0 2.0
28/05:30am 5.7 0.0 0.6 70 2.0 SW 20 28 11 15 1012.2 1012.3 2.0
28/05:00am 6.2 -2.0 0.3 66 2.3 SW 33 43 18 23 1011.1 1011.1 2.0
28/04:30am 6.0 1.1 1.8 74 1.7 W 17 32 9 17 1010.9 1010.9 2.0
28/04:00am 6.5 -1.3 2.6 76 1.6 SW 33 56 18 30 1009.9 1010.0 1.6
28/03:30am 7.0 -2.1 1.6 68 2.2 SW 39 54 21 29 1009.5 1009.6 1.6
28/03:24am 7.0 -1.7 1.9 70 2.1 SSW 37 56 20 30 1009.2 1009.3 1.6
28/03:00am 7.1 -1.1 2.8 74 1.8 SSW 35 48 19 26 1009.2 1009.3 1.6
28/02:30am 7.3 2.1 3.8 78 1.5 SSW 20 30 11 16 1009.2 1009.3 1.6
28/02:00am 7.9 2.3 3.5 74 1.9 S 22 35 12 19 1008.5 1008.6 1.4
28/01:30am 8.6 3.1 3.8 72 2.1 SSW 22 33 12 18 1007.7 1007.8 1.4
28/01:00am 9.2 5.9 4.5 72 2.1 WSW 11 22 6 12 1006.9 1007.0 1.4
28/12:30am 9.5 3.4 4.6 71 2.2 NW 26 41 14 22 1005.6 1005.7 1.4
28/12:00am 9.7 3.8 5.8 77 1.8 WNW 26 37 14 20 1005.0 1005.1 1.0
 
Date/Time
EST
Temp
°C
App
Temp
°C
Dew
Point
°C
Rel
Hum
%
Delta-T
°C
Wind Press
QNH
hPa
Press
MSL
hPa
Rain since
9am
mm
Dir  Spd
km/h
Gust
km/h
Spd
kts
Gust
kts
27/11:30pm 10.4 1.5 5.2 70 2.4 NW 41 59 22 32 1004.1 1004.2 0.6
27/11:00pm 10.7 3.3 5.0 68 2.6 NW 33 57 18 31 1003.3 1003.4 0.4
27/10:30pm 12.0 4.4 2.7 53 4.1 NW 32 57 17 31 1003.6 1003.7 0.2
27/10:28pm 11.9 5.0 2.5 52 4.1 NNW 28 54 15 29 1003.7 1003.8 0.2
27/10:00pm 11.3 3.7 2.6 55 3.8 NNW 32 46 17 25 1004.1 1004.2 0.2
27/09:30pm 11.5 4.6 2.8 55 3.8 NW 28 56 15 30 1004.2 1004.3 0.2
27/09:06pm 11.6 4.7 2.4 53 4.0 NW 28 50 15 27 1004.7 1004.8 0.2
27/09:00pm 11.5 5.3 2.3 53 4.0 NW 24 46 13 25 1004.7 1004.8 0.2
27/08:31pm 11.2 4.3 2.7 56 3.7 NW 28 52 15 28 1004.6 1004.7 0.2
27/08:30pm 11.1 4.6 2.9 57 3.6 NW 26 52 14 28 1004.7 1004.8 0.2
27/08:04pm 11.0 4.1 2.7 56 3.6 NW 28 61 15 33 1005.6 1005.7 0.2
27/08:00pm 11.0 4.9 2.7 56 3.6 NW 24 43 13 23 1005.7 1005.8 0.2
27/07:30pm 11.1 5.1 3.4 59 3.4 NNW 24 33 13 18 1006.6 1006.7 0.2
27/07:00pm 10.9 4.6 4.0 62 3.1 NW 26 39 14 21 1006.8 1006.9 0.2
27/06:30pm 10.9 4.4 4.5 64 2.9 NNW 28 46 15 25 1007.0 1007.1 0.2
27/06:29pm 10.9 4.4 4.5 64 2.9 NNW 28 46 15 25 1007.0 1007.1 0.2
27/06:00pm 11.3 6.3 4.7 64 3.0 NW 20 39 11 21 1007.4 1007.5 0.0
27/05:30pm 11.4 4.4 4.3 61 3.2 NW 30 41 16 22 1007.3 1007.4 0.0
27/05:14pm 11.5 5.0 4.5 62 3.2 NW 28 50 15 27 1007.1 1007.2 0.0
27/05:00pm 11.8 5.4 5.1 63 3.1 NW 28 41 15 22 1007.1 1007.2 0.0
27/04:30pm 12.9 7.3 3.6 53 4.2 NW 22 33 12 18 1007.1 1007.2 0.0
27/04:00pm 13.0 6.0 4.3 55 4.0 NW 30 48 16 26 1007.2 1007.3 0.0
27/03:30pm 14.5 6.8 2.4 44 5.4 NW 32 48 17 26 1006.9 1007.0 0.0
27/03:25pm 14.4 7.1 2.2 43 5.4 NW 30 48 16 26 1006.9 1007.0 0.0
27/03:00pm 13.8 6.1 2.2 45 5.1 NW 32 46 17 25 1006.9 1007.0 0.0
27/02:33pm 14.2 6.5 3.4 48 4.9 NW 33 54 18 29 1007.1 1007.2 0.0
27/02:30pm 14.2 6.6 3.1 47 5.0 NW 32 48 17 26 1007.1 1007.2 0.0
27/02:00pm 14.5 7.6 2.7 45 5.3 NW 28 48 15 26 1007.1 1007.2 0.0
27/01:30pm 14.4 6.2 2.8 45 5.2 NW 35 54 19 29 1007.4 1007.5 0.0
27/01:09pm 14.2 6.5 2.2 44 5.3 NNW 32 56 17 30 1007.8 1007.9 0.0
27/01:00pm 14.0 7.1 2.5 46 5.1 NW 28 44 15 24 1007.8 1007.9 0.0
27/12:34pm 13.6 6.9 3.7 51 4.5 NW 28 46 15 25 1008.3 1008.4 0.0
27/12:30pm 13.6 6.9 3.7 51 4.5 NW 28 44 15 24 1008.4 1008.5 0.0
27/12:11pm 13.4 6.6 3.1 49 4.6 NW 28 48 15 26 1008.8 1008.9 0.0
27/12:00pm 13.4 6.6 3.1 49 4.6 NNW 28 43 15 23 1009.0 1009.1 0.0
27/11:30am 13.1 7.0 3.0 50 4.5 NNW 24 39 13 21 1009.3 1009.4 0.0
27/11:00am 13.2 6.3 2.8 49 4.6 NNW 28 39 15 21 1009.7 1009.8 0.0
27/10:30am 13.5 8.3 2.7 48 4.8 NW 19 33 10 18 1010.1 1010.2 0.0
27/10:00am 13.3 7.2 2.7 48 4.7 NNW 24 41 13 22 1010.4 1010.4 0.0
27/09:30am 12.6 5.8 2.9 51 4.3 NNW 28 43 15 23 1010.7 1010.7 0.0
27/09:00am 12.1 6.0 3.0 53 4.0 N 24 37 13 20 1010.6 1010.6 0.0
27/08:30am 11.3 5.3 3.1 57 3.6 NNW 24 39 13 21 1010.8 1010.8 0.0
27/08:00am 10.2 4.6 3.3 62 3.0 NNW 22 35 12 19 1011.1 1011.1 0.0
27/07:30am 9.9 4.3 3.5 64 2.8 NNW 22 33 12 18 1011.1 1011.1 0.0
27/07:00am 9.4 2.3 3.4 66 2.6 NW 30 39 16 21 1011.2 1011.2 0.0
27/06:30am 9.3 1.8 3.6 67 2.5 NNW 32 41 17 22 1011.3 1011.3 0.0
27/06:00am 9.6 1.5 3.4 65 2.7 NNW 35 44 19 24 1011.0 1011.0 0.0
27/05:30am 9.6 2.7 2.8 62 2.9 NNW 28 41 15 22 1010.9 1010.9 0.0
27/05:00am 9.9 2.1 2.7 61 3.1 NW 33 44 18 24 1010.5 1010.5 0.0
27/04:36am 9.6 1.8 2.9 63 2.9 NW 33 52 18 28 1010.5 1010.5 0.0
27/04:30am 9.8 1.6 2.5 60 3.1 NW 35 52 19 28 1010.2 1010.3 0.0
27/04:27am 9.9 2.0 2.4 59 3.2 NW 33 52 18 28 1010.2 1010.3 0.0
27/04:00am 10.0 2.1 2.5 59 3.2 NNW 33 46 18 25 1010.5 1010.5 0.0
27/03:30am 9.6 3.1 2.8 62 2.9 NNW 26 39 14 21 1011.2 1011.2 0.0
27/03:06am 10.0 2.7 2.5 59 3.2 NNW 30 48 16 26 1011.5 1011.5 0.0
27/03:00am 9.8 2.2 2.8 61 3.0 NNW 32 46 17 25 1011.5 1011.5 0.0
27/02:43am 9.8 2.9 2.8 61 3.0 NW 28 46 15 25 1011.6 1011.6 0.0
27/02:30am 9.9 1.7 2.7 61 3.1 NNW 35 50 19 27 1011.4 1011.4 0.0
27/02:00am 9.7 0.8 3.0 63 2.9 NNW 39 61 21 33 1011.1 1011.1 0.0
27/01:30am 9.7 0.8 3.0 63 2.9 NW 39 57 21 31 1010.7 1010.7 0.0
27/01:00am 10.0 0.3 2.8 61 3.1 NNW 43 61 23 33 1010.9 1010.9 0.0
27/12:39am 10.1 0.4 2.9 61 3.1 NNW 43 61 23 33 1011.2 1011.2 0.0
27/12:30am 10.1 0.4 2.9 61 3.1 NW 43 57 23 31 1011.1 1011.1 0.0
27/12:00am 10.3 1.4 2.9 60 3.2 NW 39 57 21 31 1011.3 1011.3 0.0
 
Date/Time
EST
Temp
°C
App
Temp
°C
Dew
Point
°C
Rel
Hum
%
Delta-T
°C
Wind Press
QNH
hPa
Press
MSL
hPa
Rain since
9am
mm
Dir  Spd
km/h
Gust
km/h
Spd
kts
Gust
kts
26/11:30pm 10.5 1.2 2.9 59 3.3 NNW 41 59 22 32 1011.6 1011.6 0.0
26/11:00pm 10.7 1.4 2.9 58 3.4 NNW 41 59 22 32 1011.5 1011.5 0.0
26/10:30pm 10.7 2.6 3.1 59 3.3 NNW 35 54 19 29 1011.9 1011.9 0.0
26/10:00pm 11.1 1.8 2.8 56 3.6 NNW 41 63 22 34 1011.7 1011.7 0.0
26/09:30pm 10.9 1.7 3.7 61 3.2 NNW 41 69 22 37 1011.9 1011.9 0.0
26/09:00pm 11.1 2.3 3.7 60 3.3 NNW 39 61 21 33 1011.8 1011.8 0.0
26/08:30pm 11.1 1.6 3.7 60 3.3 NNW 43 61 23 33 1011.7 1011.7 0.0
26/08:14pm 11.0 2.3 4.1 62 3.1 NNW 39 57 21 31 1011.8 1011.8 0.0
26/08:00pm 11.0 2.0 4.3 63 3.0 NNW 41 56 22 30 1011.6 1011.6 0.0
26/07:30pm 11.3 1.7 4.2 61 3.2 NNW 44 61 24 33 1011.5 1011.5 0.0
26/07:22pm 11.4 1.7 4.0 60 3.3 NNW 44 63 24 34 1011.5 1011.5 0.0
26/07:00pm 11.5 2.1 4.2 61 3.3 NNW 43 57 23 31 1011.6 1011.6 0.0
26/06:37pm 11.8 4.2 4.0 59 3.5 NNW 33 54 18 29 1012.1 1012.1 0.0
26/06:30pm 11.9 4.4 3.6 57 3.7 NNW 32 44 17 24 1012.1 1012.1 0.0
26/06:12pm 12.0 5.3 3.7 57 3.7 NNW 28 48 15 26 1012.1 1012.1 0.0
26/06:00pm 12.1 4.6 3.6 56 3.8 NW 32 41 17 22 1012.1 1012.1 0.0
26/05:30pm 12.5 3.3 3.3 53 4.1 NW 41 61 22 33 1011.5 1011.5 0.0
26/05:04pm 12.7 4.2 3.0 51 4.3 NW 37 56 20 30 1011.0 1011.0 0.0
26/05:00pm 12.8 4.6 2.9 51 4.4 NNW 35 48 19 26 1011.1 1011.1 0.0
26/04:41pm 13.2 5.5 2.5 48 4.7 NNW 32 54 17 29 1011.3 1011.3 0.0
26/04:30pm 13.4 5.6 1.9 45 5.0 NNW 32 46 17 25 1011.4 1011.4 0.0
26/04:00pm 13.7 7.3 3.0 48 4.8 NNW 26 50 14 27 1011.1 1011.1 0.0
26/03:30pm 13.8 7.3 2.5 46 5.0 N 26 39 14 21 1010.9 1010.9 0.0
26/03:00pm 14.6 9.4 2.5 44 5.4 NNW 19 32 10 17 1011.1 1011.1 0.0
26/02:30pm 14.7 8.5 2.3 43 5.5 NNW 24 46 13 25 1011.2 1011.2 0.0
26/02:00pm 15.2 9.8 2.5 42 5.7 NW 20 43 11 23 1011.4 1011.4 0.0
26/01:32pm 14.5 7.6 2.3 43 5.4 NW 28 46 15 25 1011.5 1011.5 0.0
26/01:30pm 14.6 7.6 1.9 42 5.6 NW 28 43 15 23 1011.5 1011.5 0.0
26/01:18pm 14.5 7.5 2.0 43 5.5 NW 28 46 15 25 1011.4 1011.4 0.0
26/01:00pm 14.6 6.9 2.2 43 5.5 NW 32 48 17 26 1011.7 1011.7 0.0
26/12:45pm 14.3 6.0 2.0 43 5.4 NNW 35 54 19 29 1011.6 1011.6 0.0
26/12:30pm 13.8 5.9 2.2 45 5.1 NNW 33 50 18 27 1012.0 1012.0 0.0
26/12:12pm 14.5 6.6 2.0 43 5.5 NW 33 52 18 28 1012.0 1012.0 0.0
26/12:00pm 14.4 6.7 2.2 43 5.4 NW 32 44 17 24 1011.9 1011.9 0.0
26/11:48am 14.4 7.8 1.9 42 5.5 WNW 26 46 14 25 1011.9 1011.9 0.0
26/11:30am 15.4 10.5 2.2 41 5.9 WNW 17 30 9 16 1012.0 1012.0 0.0
26/11:00am 12.6 5.0 2.6 50 4.4 NNW 32 44 17 24 1012.3 1012.4 0.0
26/10:47am 12.6 5.8 2.9 51 4.3 NW 28 46 15 25 1012.1 1012.1 0.0
26/10:30am 12.0 4.4 2.6 52 4.1 NW 32 48 17 26 1012.3 1012.4 0.0
26/10:08am 11.1 2.8 2.2 54 3.8 NW 35 54 19 29 1012.3 1012.4 0.0
26/10:00am 11.3 3.6 2.2 53 3.9 NW 32 48 17 26 1012.4 1012.5 0.0
26/09:33am 11.1 4.1 2.2 54 3.8 NW 28 46 15 25 1012.6 1012.7 0.0
26/09:30am 11.1 3.3 2.0 53 3.9 NW 32 46 17 25 1012.6 1012.7 0.0
26/09:00am 10.1 2.7 2.1 57 3.4 NNW 30 50 16 27 1012.7 1012.8 0.0
26/08:52am 10.0 2.9 1.6 56 3.5 NW 28 46 15 25 1012.8 1012.9 0.0
26/08:30am 9.1 1.3 1.9 60 3.0 NW 32 41 17 22 1012.7 1012.8 0.0
26/08:00am 8.4 1.0 1.9 63 2.7 NNW 30 41 16 22 1012.9 1013.0 0.0
26/07:30am 7.8 1.9 1.7 65 2.5 NW 22 35 12 19 1013.4 1013.5 0.0
26/07:00am 6.9 2.3 1.7 69 2.1 NW 15 28 8 15 1013.2 1013.3 0.0
26/06:30am 6.1 3.1 1.1 70 2.0 SW 6 13 3 7 1013.0 1013.1 0.0
26/06:00am 5.2 3.4 1.4 76 1.5 CALM 0 6 0 3 1012.9 1013.0 0.0
26/05:30am 4.6 2.1 1.3 79 1.3 NE 4 7 2 4 1012.9 1013.0 0.0
26/05:00am 4.6 1.5 1.3 79 1.3 N 7 11 4 6 1012.7 1012.8 0.0
26/04:30am 5.5 2.0 1.2 74 1.7 NNE 9 13 5 7 1012.5 1012.6 0.0
26/04:00am 7.2 2.8 0.4 62 2.7 NNE 13 24 7 13 1012.6 1012.7 0.0
26/03:30am 6.0 1.7 0.9 70 2.0 NW 13 22 7 12 1012.5 1012.6 0.0
26/03:00am 6.8 2.5 0.8 65 2.4 NNW 13 24 7 13 1012.6 1012.7 0.0
26/02:30am 5.8 2.6 1.0 71 1.9 NNW 7 15 4 8 1012.7 1012.8 0.0
26/02:00am 5.6 2.6 0.7 71 1.9 W 6 11 3 6 1013.0 1013.1 0.0
26/01:30am 6.2 1.5 0.6 67 2.2 NNW 15 28 8 15 1013.4 1013.5 0.0
26/01:00am 4.7 1.1 0.8 76 1.5 WSW 9 15 5 8 1013.5 1013.6 0.0
26/12:30am 5.1 1.5 0.7 73 1.7 WSW 9 11 5 6 1013.7 1013.8 0.0

Other Formats:

Comma delimited format used in spreadsheet applications
http://www.bom.gov.au/fwo/IDT60801/IDT60801.94970.axf

JavaScript Object Notation format (JSON) in row-major order
http://www.bom.gov.au/fwo/IDT60801/IDT60801.94970.json